createdAt,value
2019-02-08T00:01:31.832Z,99573.78
2019-02-08T00:04:02.029Z,99581.21
2019-02-08T00:06:33.244Z,99574.34
2019-02-08T00:09:05.497Z,99571.94
2019-02-08T00:11:35.643Z,99567.03
2019-02-08T00:14:06.147Z,99571.44
2019-02-08T00:16:37.334Z,99568.23
2019-02-08T00:19:07.555Z,99566.09
2019-02-08T00:21:37.793Z,99575.20
2019-02-08T00:24:07.898Z,99564.82
2019-02-08T00:26:38.220Z,99559.69
2019-02-08T00:29:08.853Z,99556.19
2019-02-08T00:31:39.367Z,99558.20
2019-02-08T00:34:09.491Z,99536.45
2019-02-08T00:36:39.635Z,99526.41
2019-02-08T00:39:11.773Z,99520.37
2019-02-08T00:41:41.913Z,99513.71
2019-02-08T00:44:12.221Z,99507.56
2019-02-08T00:46:42.306Z,99502.02
2019-02-08T00:49:12.445Z,99502.99
2019-02-08T00:51:43.315Z,99502.95
2019-02-08T00:54:13.553Z,99501.48
2019-02-08T00:56:43.648Z,99496.72
2019-02-08T00:59:13.928Z,99488.55
2019-02-08T01:01:44.046Z,99475.98
2019-02-08T01:04:14.243Z,99463.43
2019-02-08T01:06:44.334Z,99456.86
2019-02-08T01:09:15.004Z,99451.73
2019-02-08T01:11:45.390Z,99441.23
2019-02-08T01:14:15.581Z,99440.45
2019-02-08T01:16:45.679Z,99440.23
2019-02-08T01:19:15.821Z,99440.16
2019-02-08T01:21:46.221Z,99446.47
2019-02-08T01:24:16.358Z,99440.84
2019-02-08T01:26:46.508Z,99434.94
2019-02-08T01:29:16.627Z,99438.39
2019-02-08T01:31:46.736Z,99436.35
2019-02-08T01:34:16.862Z,99434.08
2019-02-08T01:36:46.971Z,99419.21
2019-02-08T01:39:17.122Z,99411.35
2019-02-08T01:41:47.228Z,99410.48
2019-02-08T01:44:17.429Z,99403.41
2019-02-08T01:46:47.466Z,99396.75
2019-02-08T01:49:18.150Z,99397.81
2019-02-08T01:51:48.264Z,99393.75
2019-02-08T01:54:18.410Z,99391.33
2019-02-08T01:56:48.523Z,99394.92
2019-02-08T01:59:18.646Z,99388.54
2019-02-08T02:01:48.852Z,99397.61
2019-02-08T02:04:18.985Z,99393.40
2019-02-08T02:06:49.745Z,99390.98
2019-02-08T02:09:20.863Z,99389.16
2019-02-08T02:11:50.970Z,99387.25
2019-02-08T02:14:21.152Z,99389.78
2019-02-08T02:16:52.246Z,99376.06
2019-02-08T02:19:22.481Z,99357.31
2019-02-08T02:21:52.604Z,99354.38
2019-02-08T02:24:23.174Z,99356.67
2019-02-08T02:26:53.291Z,99353.46
2019-02-08T02:29:23.406Z,99342.57
2019-02-08T02:31:54.132Z,99341.82
2019-02-08T02:34:24.275Z,99329.97
2019-02-08T02:36:54.393Z,99327.25
2019-02-08T02:39:24.523Z,99323.26
2019-02-08T02:41:54.646Z,99309.06
2019-02-08T02:44:24.813Z,99304.62
2019-02-08T02:46:54.984Z,99294.48
2019-02-08T02:49:26.167Z,99307.29
2019-02-08T02:51:56.256Z,99304.18
2019-02-08T02:54:26.372Z,99309.25
2019-02-08T02:56:56.475Z,99303.25
2019-02-08T02:59:26.583Z,99303.44
2019-02-08T03:01:56.696Z,99292.36
2019-02-08T03:04:26.954Z,99293.08
2019-02-08T03:06:57.092Z,99292.82
2019-02-08T03:09:27.200Z,99282.70
2019-02-08T03:11:57.359Z,99273.33
2019-02-08T03:14:27.533Z,99265.00
2019-02-08T03:16:57.644Z,99261.97
2019-02-08T03:19:27.732Z,99262.91
2019-02-08T03:21:57.846Z,99260.36
2019-02-08T03:24:27.949Z,99251.80
2019-02-08T03:26:58.076Z,99250.91
2019-02-08T03:29:28.191Z,99242.08
2019-02-08T03:31:58.303Z,99236.23
2019-02-08T03:34:28.417Z,99239.92
2019-02-08T03:36:58.511Z,99228.28
2019-02-08T03:39:28.627Z,99230.83
2019-02-08T03:41:58.800Z,99225.48
2019-02-08T03:44:28.883Z,99226.42
2019-02-08T03:46:59.018Z,99226.39
2019-02-08T03:49:29.135Z,99228.98
2019-02-08T03:51:59.255Z,99222.64
2019-02-08T03:54:29.379Z,99228.51
2019-02-08T03:56:59.509Z,99224.15
2019-02-08T03:59:29.756Z,99223.20
2019-02-08T04:01:59.885Z,99216.20
2019-02-08T04:04:29.992Z,99208.91
2019-02-08T04:07:00.113Z,99210.41
2019-02-08T04:09:30.208Z,99210.14
2019-02-08T04:12:02.022Z,99210.70
2019-02-08T04:14:32.258Z,99215.44
2019-02-08T04:17:02.396Z,99211.20
2019-02-08T04:19:32.483Z,99206.05
2019-02-08T04:22:02.641Z,99191.86
2019-02-08T04:24:32.737Z,99204.63
2019-02-08T04:27:02.890Z,99203.70
2019-02-08T04:29:33.011Z,99194.98
2019-02-08T04:32:03.138Z,99196.61
2019-02-08T04:34:33.238Z,99197.81
2019-02-08T04:37:03.406Z,99193.97
2019-02-08T04:39:33.527Z,99191.78
2019-02-08T04:42:03.659Z,99200.66
2019-02-08T04:44:33.763Z,99199.14
2019-02-08T04:47:03.883Z,99194.69
2019-02-08T04:49:34.062Z,99193.27
2019-02-08T04:52:04.280Z,99194.22
2019-02-08T04:54:38.362Z,99187.78
2019-02-08T04:57:06.261Z,99198.00
2019-02-08T04:59:36.584Z,99187.77
2019-02-08T05:02:06.729Z,99193.92
2019-02-08T05:04:36.846Z,99195.33
2019-02-08T05:07:06.970Z,99196.00
2019-02-08T05:09:37.102Z,99186.45
2019-02-08T05:12:07.235Z,99182.66
2019-02-08T05:14:37.357Z,99191.76
2019-02-08T05:17:07.483Z,99191.94
2019-02-08T05:19:37.564Z,99184.47
2019-02-08T05:22:07.694Z,99185.88
2019-02-08T05:24:45.592Z,99187.02
2019-02-08T05:27:09.692Z,99183.72
2019-02-08T05:29:39.807Z,99177.55
2019-02-08T05:32:09.933Z,99182.30
2019-02-08T05:34:40.050Z,99179.84
2019-02-08T05:37:10.187Z,99179.33
2019-02-08T05:39:40.298Z,99178.02
2019-02-08T05:42:10.409Z,99179.04
2019-02-08T05:44:40.527Z,99176.32
2019-02-08T05:47:10.662Z,99178.30
2019-02-08T05:49:41.131Z,99183.59
2019-02-08T05:52:11.750Z,99181.70
2019-02-08T05:54:42.097Z,99180.95
2019-02-08T05:57:12.530Z,99181.33
2019-02-08T05:59:42.797Z,99169.39
2019-02-08T06:02:13.128Z,99176.09
2019-02-08T06:04:43.596Z,99171.14
2019-02-08T06:07:13.870Z,99181.63
2019-02-08T06:09:43.964Z,99169.89
2019-02-08T06:12:14.200Z,99175.95
2019-02-08T06:14:44.583Z,99183.91
2019-02-08T06:17:14.677Z,99182.48
2019-02-08T06:19:45.062Z,99186.61
2019-02-08T06:22:15.241Z,99179.13
2019-02-08T06:24:45.402Z,99192.39
2019-02-08T06:27:16.270Z,99192.39
2019-02-08T06:29:46.377Z,99195.22
2019-02-08T06:32:16.722Z,99201.11
2019-02-08T06:34:47.657Z,99196.89
2019-02-08T06:37:17.865Z,99199.92
2019-02-08T06:39:48.063Z,99208.64
2019-02-08T06:42:18.206Z,99211.40
2019-02-08T06:44:49.281Z,99208.84
2019-02-08T06:47:19.414Z,99214.08
2019-02-08T06:49:49.721Z,99209.72
2019-02-08T06:52:19.809Z,99211.50
2019-02-08T06:54:49.928Z,99214.42
2019-02-08T06:57:26.243Z,99216.98
2019-02-08T07:00:18.190Z,99220.01
2019-02-08T07:03:17.264Z,99218.95
2019-02-08T07:06:00.807Z,99213.98
2019-02-08T07:08:48.858Z,99218.34
2019-02-08T07:11:41.007Z,99221.80
2019-02-08T07:14:18.361Z,99229.41
2019-02-08T07:17:06.093Z,99227.22
2019-02-08T07:20:04.246Z,99239.81
2019-02-08T07:23:08.715Z,99243.05
2019-02-08T07:26:15.870Z,99248.70
2019-02-08T07:28:52.760Z,99250.20
2019-02-08T07:31:40.598Z,99257.84
2019-02-08T07:34:36.198Z,99257.22
2019-02-08T07:37:26.754Z,99258.75
2019-02-08T07:40:34.485Z,99264.40
2019-02-08T07:43:28.171Z,99264.64
2019-02-08T07:46:16.537Z,99270.34
2019-02-08T07:49:17.784Z,99268.73
2019-02-08T07:52:06.033Z,99275.95
2019-02-08T07:54:52.002Z,99279.67
2019-02-08T07:57:53.222Z,99211.88
2019-02-08T08:00:49.859Z,99285.84
2019-02-08T08:03:42.010Z,99288.12
2019-02-08T08:06:37.154Z,99285.05
2019-02-08T08:09:42.107Z,99282.30
2019-02-08T08:12:34.260Z,99291.42
2019-02-08T08:15:36.890Z,99292.24
2019-02-08T08:18:22.369Z,99292.37
2019-02-08T08:21:30.319Z,99295.38
2019-02-08T08:24:30.241Z,99300.42
2019-02-08T08:27:25.396Z,99303.55
2019-02-08T08:30:12.163Z,99295.48
2019-02-08T08:32:55.058Z,99296.33
2019-02-08T08:35:47.839Z,99303.21
2019-02-08T08:39:05.860Z,99306.38
2019-02-08T08:42:05.243Z,99301.55
2019-02-08T08:45:15.073Z,99305.77
2019-02-08T08:48:29.374Z,99315.45
2019-02-08T08:51:35.365Z,99323.21
2019-02-08T08:54:55.460Z,99315.00
2019-02-08T08:58:14.107Z,99312.86
2019-02-08T09:01:18.039Z,99321.38
2019-02-08T09:04:30.361Z,99322.43
2019-02-08T09:07:44.510Z,99329.99
2019-02-08T09:11:04.913Z,99331.12
2019-02-08T09:14:10.952Z,99330.64
2019-02-08T09:17:26.766Z,99343.02
2019-02-08T09:20:52.118Z,99339.53
2019-02-08T09:24:15.014Z,99347.13
2019-02-08T09:27:35.172Z,99346.38
2019-02-08T09:30:31.853Z,99351.46
2019-02-08T09:33:39.075Z,99362.67
2019-02-08T09:36:47.401Z,99360.45
2019-02-08T09:39:55.431Z,99363.08
2019-02-08T09:42:59.014Z,99369.56
2019-02-08T09:46:05.649Z,99373.89
2019-02-08T09:49:22.612Z,99382.03
2019-02-08T09:52:30.074Z,99376.03
2019-02-08T09:55:47.442Z,99386.43
2019-02-08T09:58:49.952Z,99380.39
2019-02-08T10:01:56.584Z,99400.65
2019-02-08T10:05:14.242Z,99391.78
2019-02-08T10:08:56.516Z,99397.00
2019-02-08T10:12:00.413Z,99405.38
2019-02-08T10:15:19.153Z,99410.98
2019-02-08T10:18:54.489Z,99417.55
2019-02-08T10:21:55.513Z,99426.25
2019-02-08T10:25:14.695Z,99425.73
2019-02-08T10:28:18.328Z,99432.49
2019-02-08T10:31:24.256Z,99445.41
2019-02-08T10:34:32.847Z,99431.20
2019-02-08T10:37:50.071Z,99443.71
2019-02-08T10:40:54.557Z,99440.47
2019-02-08T10:43:56.673Z,99450.05
2019-02-08T10:47:04.499Z,99463.08
2019-02-08T10:50:11.183Z,99462.40
2019-02-08T10:53:15.536Z,99462.13
2019-02-08T10:56:22.600Z,99464.75
2019-02-08T10:59:29.500Z,99467.58
2019-02-08T11:02:34.849Z,99475.02
2019-02-08T11:05:41.805Z,99470.04
2019-02-08T11:08:55.463Z,99482.45
2019-02-08T11:12:08.675Z,99493.75
2019-02-08T11:15:22.040Z,99487.30
2019-02-08T11:18:34.225Z,99485.01
2019-02-08T11:21:04.959Z,99495.45
2019-02-08T11:23:35.084Z,99487.59
2019-02-08T11:26:06.286Z,99497.98
2019-02-08T11:28:36.453Z,99484.88
2019-02-08T11:31:06.746Z,99494.56
2019-02-08T11:33:36.846Z,99497.19
2019-02-08T11:36:07.180Z,99503.73
2019-02-08T11:38:37.269Z,99504.17
2019-02-08T11:41:07.879Z,99510.19
2019-02-08T11:43:37.987Z,99510.63
2019-02-08T11:46:08.185Z,99510.27
2019-02-08T11:48:38.287Z,99506.55
2019-02-08T11:51:08.373Z,99517.03
2019-02-08T11:53:38.487Z,99519.69
2019-02-08T11:56:08.691Z,99516.02
2019-02-08T11:58:38.809Z,99527.26
2019-02-08T12:01:08.907Z,99536.58
2019-02-08T12:03:38.995Z,99534.94
2019-02-08T12:06:09.256Z,99537.88
2019-02-08T12:08:39.365Z,99544.59
2019-02-08T12:11:09.441Z,99541.75
2019-02-08T12:13:39.570Z,99551.09
2019-02-08T12:16:09.766Z,99551.25
2019-02-08T12:18:39.889Z,99552.96
2019-02-08T12:21:10.036Z,99552.63
2019-02-08T12:23:40.206Z,99555.98
2019-02-08T12:26:10.307Z,99564.44
2019-02-08T12:28:40.458Z,99555.80
2019-02-08T12:31:10.558Z,99561.23
2019-02-08T12:33:40.668Z,99566.31
2019-02-08T12:36:10.781Z,99569.97
2019-02-08T12:38:40.896Z,99574.14
2019-02-08T12:41:10.980Z,99574.55
2019-02-08T12:43:41.116Z,99574.07
2019-02-08T12:46:12.287Z,99577.28
2019-02-08T12:48:42.390Z,99583.25
2019-02-08T12:51:13.559Z,99589.45
2019-02-08T12:53:43.655Z,99584.50
2019-02-08T12:56:13.824Z,99588.66
2019-02-08T12:58:44.004Z,99586.52
2019-02-08T13:01:14.113Z,99593.38
2019-02-08T13:03:44.222Z,99593.22
2019-02-08T13:06:14.319Z,99597.20
2019-02-08T13:08:44.602Z,99600.10
2019-02-08T13:11:14.690Z,99591.25
2019-02-08T13:13:44.791Z,99599.14
2019-02-08T13:16:14.938Z,99598.88
2019-02-08T13:18:45.132Z,99612.63
2019-02-08T13:21:15.239Z,99612.10
2019-02-08T13:23:45.332Z,99616.37
2019-02-08T13:26:15.424Z,99622.64
2019-02-08T13:28:45.520Z,99623.66
2019-02-08T13:31:15.634Z,99632.52
2019-02-08T13:33:45.746Z,99626.47
2019-02-08T13:36:16.214Z,99633.41
2019-02-08T13:38:46.348Z,99640.55
2019-02-08T13:41:16.477Z,99644.16
2019-02-08T13:43:46.645Z,99650.24
2019-02-08T13:46:17.063Z,99656.97
2019-02-08T13:48:47.156Z,99650.06
2019-02-08T13:51:17.488Z,99648.47
2019-02-08T13:53:47.615Z,99651.88
2019-02-08T13:56:17.793Z,99651.23
2019-02-08T13:58:47.916Z,99655.97
2019-02-08T14:01:20.299Z,99660.20
2019-02-08T14:03:50.529Z,99663.62
2019-02-08T14:06:20.617Z,99669.70
2019-02-08T14:08:50.724Z,99669.90
2019-02-08T14:11:20.933Z,99676.18
2019-02-08T14:13:51.116Z,99684.19
2019-02-08T14:16:21.270Z,99687.70
2019-02-08T14:18:53.995Z,99690.53
2019-02-08T14:21:24.128Z,99693.59
2019-02-08T14:23:54.216Z,99695.52
2019-02-08T14:26:24.339Z,99701.04
2019-02-08T14:28:54.547Z,99703.60
2019-02-08T14:31:24.651Z,99710.08
2019-02-08T14:33:55.173Z,99702.19
2019-02-08T14:36:27.068Z,99708.92
2019-02-08T14:38:57.195Z,99706.28
2019-02-08T14:41:27.344Z,99706.75
2019-02-08T14:43:57.437Z,99718.45
2019-02-08T14:46:27.569Z,99716.91
2019-02-08T14:48:57.964Z,99719.41
2019-02-08T14:51:28.191Z,99727.17
2019-02-08T14:53:58.324Z,99729.07
2019-02-08T14:56:28.448Z,99733.83
2019-02-08T14:58:58.564Z,99736.87
2019-02-08T15:01:28.697Z,99748.55
2019-02-08T15:03:58.825Z,99749.80
2019-02-08T15:06:28.962Z,99753.41
2019-02-08T15:08:59.651Z,99751.50
2019-02-08T15:11:29.766Z,99750.55
2019-02-08T15:13:59.872Z,99764.42
2019-02-08T15:16:30.219Z,99762.81
2019-02-08T15:19:00.381Z,99764.05
2019-02-08T15:21:30.447Z,99775.13
2019-02-08T15:24:00.751Z,99774.97
2019-02-08T15:26:30.894Z,99772.02
2019-02-08T15:29:00.996Z,99770.31
2019-02-08T15:31:31.092Z,99770.18
2019-02-08T15:34:01.242Z,99765.14
2019-02-08T15:36:31.407Z,99776.34
2019-02-08T15:39:01.510Z,99773.89
2019-02-08T15:41:33.007Z,99775.88
2019-02-08T15:44:03.227Z,99773.69
2019-02-08T15:46:33.322Z,99774.92
2019-02-08T15:49:04.226Z,99771.41
2019-02-08T15:51:34.589Z,99776.92
2019-02-08T15:54:04.796Z,99776.91
2019-02-08T15:56:34.894Z,99775.28
2019-02-08T15:59:06.416Z,99780.59
2019-02-08T16:01:36.581Z,99783.02
2019-02-08T16:04:06.686Z,99786.34
2019-02-08T16:06:36.851Z,99787.09
2019-02-08T16:09:12.013Z,99789.70
2019-02-08T16:11:42.117Z,99793.30
2019-02-08T16:14:12.256Z,99799.50
2019-02-08T16:16:42.379Z,99800.22
2019-02-08T16:19:12.710Z,99808.42
2019-02-08T16:21:42.819Z,99802.05
2019-02-08T16:24:12.911Z,99804.72
2019-02-08T16:26:44.104Z,99803.58
2019-02-08T16:29:14.216Z,99805.47
2019-02-08T16:31:44.323Z,99808.13
2019-02-08T16:34:14.617Z,99809.16
2019-02-08T16:36:44.914Z,99813.44
2019-02-08T16:39:15.026Z,99812.02
2019-02-08T16:41:45.125Z,99815.33
2019-02-08T16:44:15.231Z,99821.80
2019-02-08T16:46:45.357Z,99823.86
2019-02-08T16:49:15.748Z,99820.65
2019-02-08T16:51:45.833Z,99824.13
2019-02-08T16:54:15.948Z,99824.05
2019-02-08T16:56:46.059Z,99821.68
2019-02-08T16:59:16.172Z,99830.16
2019-02-08T17:01:46.280Z,99824.45
2019-02-08T17:04:16.540Z,99815.06
2019-02-08T17:06:46.632Z,99823.86
2019-02-08T17:09:17.974Z,99822.24
2019-02-08T17:11:48.106Z,99821.59
2019-02-08T17:14:18.313Z,99823.75
2019-02-08T17:16:48.433Z,99832.25
2019-02-08T17:19:18.544Z,99827.84
2019-02-08T17:21:48.924Z,99824.63
2019-02-08T17:24:19.152Z,99829.09
2019-02-08T17:26:49.497Z,99822.17
2019-02-08T17:29:19.541Z,99823.33
2019-02-08T17:31:50.703Z,99830.14
2019-02-08T17:34:20.830Z,99832.06
2019-02-08T17:36:50.929Z,99834.51
2019-02-08T17:39:21.065Z,99836.78
2019-02-08T17:41:51.173Z,99837.55
2019-02-08T17:44:21.266Z,99844.66
2019-02-08T17:46:51.387Z,99850.06
2019-02-08T17:49:21.492Z,99848.56
2019-02-08T17:51:51.594Z,99842.66
2019-02-08T17:54:25.670Z,99844.53
2019-02-08T17:56:53.629Z,99842.96
2019-02-08T17:59:23.866Z,99841.25
2019-02-08T18:01:54.105Z,99846.63
2019-02-08T18:04:24.157Z,99843.05
2019-02-08T18:06:54.691Z,99844.12
2019-02-08T18:09:25.378Z,99839.05
2019-02-08T18:11:55.445Z,99840.55
2019-02-08T18:14:25.574Z,99844.30
2019-02-08T18:16:55.894Z,99847.72
2019-02-08T18:19:27.053Z,99839.65
2019-02-08T18:21:57.153Z,99841.88
2019-02-08T18:24:27.521Z,99848.45
2019-02-08T18:26:57.910Z,99846.86
2019-02-08T18:29:28.006Z,99847.14
2019-02-08T18:31:58.090Z,99842.01
2019-02-08T18:34:28.265Z,99848.00
2019-02-08T18:36:58.447Z,99847.67
2019-02-08T18:39:28.564Z,99846.63
2019-02-08T18:41:58.684Z,99841.63
2019-02-08T18:44:28.790Z,99834.21
2019-02-08T18:46:58.932Z,99841.70
2019-02-08T18:49:29.038Z,99832.80
2019-02-08T18:51:59.491Z,99822.97
2019-02-08T18:54:29.583Z,99816.69
2019-02-08T18:56:59.713Z,99811.46
2019-02-08T18:59:29.800Z,99813.44
2019-02-08T19:01:59.939Z,99820.49
2019-02-08T19:04:30.039Z,99821.41
2019-02-08T19:07:00.171Z,99825.31
2019-02-08T19:09:30.284Z,99826.73
2019-02-08T19:12:00.431Z,99830.07
2019-02-08T19:14:30.482Z,99816.95
2019-02-08T19:17:00.996Z,99822.19
2019-02-08T19:19:31.114Z,99821.30
2019-02-08T19:22:01.234Z,99815.59
2019-02-08T19:24:31.340Z,99810.76
2019-02-08T19:27:01.532Z,99816.20
2019-02-08T19:29:32.122Z,99808.24
2019-02-08T19:32:02.244Z,99812.09
2019-02-08T19:34:32.364Z,99811.95
2019-02-08T19:37:03.088Z,99815.52
2019-02-08T19:39:33.404Z,99809.86
2019-02-08T19:42:03.755Z,99813.38
2019-02-08T19:44:33.990Z,99814.02
2019-02-08T19:47:04.110Z,99809.09
2019-02-08T19:49:34.226Z,99812.39
2019-02-08T19:52:04.527Z,99815.90
2019-02-08T19:54:34.699Z,99815.52
2019-02-08T19:57:05.259Z,99816.84
2019-02-08T19:59:35.452Z,99810.37
2019-02-08T20:02:05.701Z,99815.61
2019-02-08T20:04:35.805Z,99818.20
2019-02-08T20:07:06.035Z,99819.80
2019-02-08T20:09:36.850Z,99821.98
2019-02-08T20:12:07.016Z,99817.09
2019-02-08T20:14:37.139Z,99812.78
2019-02-08T20:17:07.279Z,99811.70
2019-02-08T20:19:37.419Z,99809.09
2019-02-08T20:22:07.766Z,99809.69
2019-02-08T20:24:37.878Z,99799.62
2019-02-08T20:27:07.985Z,99794.31
2019-02-08T20:29:38.484Z,99795.64
2019-02-08T20:32:09.580Z,99793.72
2019-02-08T20:34:40.913Z,99784.47
2019-02-08T20:37:11.029Z,99776.80
2019-02-08T20:39:41.140Z,99772.01
2019-02-08T20:42:11.269Z,99784.99
2019-02-08T20:44:41.395Z,99777.80
2019-02-08T20:47:11.531Z,99782.08
2019-02-08T20:49:41.632Z,99782.81
2019-02-08T20:52:11.767Z,99769.73
2019-02-08T20:54:42.162Z,99771.51
2019-02-08T20:57:12.300Z,99773.65
2019-02-08T20:59:42.431Z,99761.00
2019-02-08T21:02:12.578Z,99757.03
2019-02-08T21:04:42.677Z,99756.73
2019-02-08T21:07:12.804Z,99763.45
2019-02-08T21:09:42.915Z,99756.27
2019-02-08T21:12:13.056Z,99748.56
2019-02-08T21:14:43.206Z,99745.27
2019-02-08T21:17:13.392Z,99740.70
2019-02-08T21:19:43.480Z,99737.13
2019-02-08T21:22:13.625Z,99733.49
2019-02-08T21:24:43.741Z,99730.26
2019-02-08T21:27:13.856Z,99729.89
2019-02-08T21:29:44.635Z,99718.38
2019-02-08T21:32:14.777Z,99718.45
2019-02-08T21:34:44.878Z,99712.55
2019-02-08T21:37:14.973Z,99709.78
2019-02-08T21:39:45.114Z,99711.70
2019-02-08T21:42:15.261Z,99704.30
2019-02-08T21:44:45.381Z,99697.47
2019-02-08T21:47:15.559Z,99698.78
2019-02-08T21:49:45.706Z,99693.99
2019-02-08T21:52:16.058Z,99686.63
2019-02-08T21:54:46.222Z,99683.88
2019-02-08T21:57:16.507Z,99673.74
2019-02-08T21:59:46.650Z,99670.46
2019-02-08T22:02:16.823Z,99669.53
2019-02-08T22:04:47.062Z,99661.95
2019-02-08T22:07:17.337Z,99660.65
2019-02-08T22:09:47.520Z,99657.84
2019-02-08T22:12:17.799Z,99654.09
2019-02-08T22:14:47.929Z,99650.98
2019-02-08T22:17:18.299Z,99640.42
2019-02-08T22:19:48.411Z,99644.87
2019-02-08T22:22:18.518Z,99629.44
2019-02-08T22:24:48.659Z,99628.77
2019-02-08T22:27:18.764Z,99625.84
2019-02-08T22:29:48.892Z,99616.65
2019-02-08T22:32:20.077Z,99616.06
2019-02-08T22:34:50.243Z,99615.50
2019-02-08T22:37:20.356Z,99609.34
2019-02-08T22:39:50.633Z,99606.59
2019-02-08T22:42:21.682Z,99603.33
2019-02-08T22:44:51.801Z,99605.06
2019-02-08T22:47:22.744Z,99592.09
2019-02-08T22:49:52.853Z,99595.69
2019-02-08T22:52:22.971Z,99593.98
2019-02-08T22:54:53.055Z,99589.47
2019-02-08T22:57:23.595Z,99584.16
2019-02-08T22:59:55.703Z,99584.31
2019-02-08T23:02:25.878Z,99584.70
2019-02-08T23:04:55.986Z,99585.61
2019-02-08T23:07:26.168Z,99578.16
2019-02-08T23:09:56.334Z,99577.98
2019-02-08T23:12:26.684Z,99572.34
2019-02-08T23:14:56.854Z,99564.71
2019-02-08T23:17:27.030Z,99564.98
2019-02-08T23:19:57.311Z,99571.08
2019-02-08T23:22:27.499Z,99564.36
2019-02-08T23:24:57.599Z,99563.68
2019-02-08T23:27:28.675Z,99552.10
2019-02-08T23:29:58.782Z,99551.30
2019-02-08T23:32:28.875Z,99550.95
2019-02-08T23:34:59.009Z,99540.93
2019-02-08T23:37:29.137Z,99549.09
2019-02-08T23:40:00.127Z,99548.89
2019-02-08T23:42:30.372Z,99546.70
2019-02-08T23:45:00.476Z,99542.86
2019-02-08T23:47:30.611Z,99541.61
2019-02-08T23:50:00.720Z,99525.60
2019-02-08T23:52:30.836Z,99528.14
2019-02-08T23:55:00.937Z,99522.82
2019-02-08T23:57:31.052Z,99520.30
